Time;durP1;ratioP1;P1;durP2;ratioP2;P2;SDS_P1;SDS_P2;PMS_P1;PMS_P2;Temp;Humidity;BMP_temperature;BMP_pressure;BME280_temperature;BME280_humidity;BME280_pressure;Samples;Min_cycle;Max_cycle;Signal;HPM_P1;HPM_P2
2022/11/16 00:01:20;;;;;;;;;;;;;;;20.13;47.41;99564.91;5129867;28;19928;-39
2022/11/16 00:03:45;;;;;;;;;;;;;;;20.14;47.18;99562.97;5109955;28;19928;-40
2022/11/16 00:06:12;;;;;;;;;;;;;;;20.14;47.17;99557.44;5109198;28;19972;-39
2022/11/16 00:08:39;;;;;;;;;;;;;;;20.14;47.26;99551.91;5130118;27;19966;-39
2022/11/16 00:11:07;;;;;;;;;;;;;;;20.13;47.42;99544.75;5112653;28;19969;-40
2022/11/16 00:13:33;;;;;;;;;;;;;;;20.13;47.16;99548.34;5131821;27;20018;-39
2022/11/16 00:15:59;;;;;;;;;;;;;;;20.13;47.14;99540.03;5110238;28;19935;-38
2022/11/16 00:18:24;;;;;;;;;;;;;;;20.12;47.40;99541.19;5110744;28;20276;-39
2022/11/16 00:20:50;;;;;;;;;;;;;;;20.13;47.15;99536.47;5111096;28;19930;-39
2022/11/16 00:23:16;;;;;;;;;;;;;;;20.12;47.09;99532.03;5110790;28;19930;-40
2022/11/16 00:25:42;;;;;;;;;;;;;;;20.13;47.21;99530.94;5110470;28;20364;-40
2022/11/16 00:28:07;;;;;;;;;;;;;;;20.13;47.14;99536.47;5127419;28;19931;-39
2022/11/16 00:30:33;;;;;;;;;;;;;;;20.12;47.42;99532.88;5127112;28;19924;-39
2022/11/16 00:32:59;;;;;;;;;;;;;;;20.12;47.16;99535.66;5126598;28;19988;-39
2022/11/16 00:35:24;;;;;;;;;;;;;;;20.11;47.33;99533.19;5124231;28;20000;-39
2022/11/16 00:37:50;;;;;;;;;;;;;;;20.12;47.11;99532.03;5128054;28;19924;-39
2022/11/16 00:40:16;;;;;;;;;;;;;;;20.12;47.15;99532.03;5130181;28;20034;-39
2022/11/16 00:42:41;;;;;;;;;;;;;;;20.13;47.19;99530.94;5106401;28;19933;-40
2022/11/16 00:45:07;;;;;;;;;;;;;;;20.12;47.35;99530.13;5128211;28;20275;-38
2022/11/16 00:47:32;;;;;;;;;;;;;;;20.12;47.19;99529.28;5128790;28;19923;-39
2022/11/16 00:49:58;;;;;;;;;;;;;;;20.11;47.29;99522.94;5128164;28;19942;-39
2022/11/16 00:52:24;;;;;;;;;;;;;;;20.11;47.19;99534.00;5129526;28;19923;-39
2022/11/16 00:54:49;;;;;;;;;;;;;;;20.12;47.09;99534.81;5127465;28;19924;-37
2022/11/16 00:57:15;;;;;;;;;;;;;;;20.10;47.18;99526.84;5129927;28;19950;-39
2022/11/16 00:59:40;;;;;;;;;;;;;;;20.11;47.35;99520.19;5127353;28;19924;-39
2022/11/16 01:02:06;;;;;;;;;;;;;;;20.11;47.34;99525.72;5129062;27;19928;-39
2022/11/16 01:04:32;;;;;;;;;;;;;;;20.11;47.50;99524.91;5126636;28;19934;-39
2022/11/16 01:06:57;;;;;;;;;;;;;;;20.11;47.36;99525.72;5129496;28;19951;-39
2022/11/16 01:09:23;;;;;;;;;;;;;;;20.11;47.37;99522.13;5129066;28;19936;-38
2022/11/16 01:12:19;;;;;;;;;;;;;;;20.11;47.17;99519.38;5129716;28;19975;-38
2022/11/16 01:14:35;;;;;;;;;;;;;;;20.11;47.37;99520.19;5114147;28;20026;-38
2022/11/16 01:17:00;;;;;;;;;;;;;;;20.11;47.04;99513.84;5110600;28;19954;-38
2022/11/16 01:19:26;;;;;;;;;;;;;;;20.10;47.26;99517.75;5126740;28;20290;-39
2022/11/16 01:21:52;;;;;;;;;;;;;;;20.10;47.02;99523.28;5128215;28;19927;-38
2022/11/16 01:24:17;;;;;;;;;;;;;;;20.10;47.39;99520.50;5125217;28;20023;-39
2022/11/16 01:26:43;;;;;;;;;;;;;;;20.10;47.17;99523.28;5125736;28;19930;-39
2022/11/16 01:29:08;;;;;;;;;;;;;;;20.10;47.38;99523.28;5129055;27;19946;-39
2022/11/16 01:31:34;;;;;;;;;;;;;;;20.10;47.36;99534.34;5128459;28;19923;-38
2022/11/16 01:33:59;;;;;;;;;;;;;;;20.10;47.19;99526.03;5127460;28;20414;-38
2022/11/16 01:36:25;;;;;;;;;;;;;;;20.10;47.35;99526.03;5126881;28;19982;-39
2022/11/16 01:38:50;;;;;;;;;;;;;;;20.09;47.18;99528.00;5128524;28;19928;-39
2022/11/16 01:41:17;;;;;;;;;;;;;;;20.09;47.28;99528.00;5128999;28;19928;-40
2022/11/16 01:44:03;;;;;;;;;;;;;;;20.10;47.13;99528.81;5128644;28;19976;-39
2022/11/16 01:46:29;;;;;;;;;;;;;;;20.08;47.34;99526.38;5113474;28;19955;-38
2022/11/16 01:48:59;;;;;;;;;;;;;;;20.09;47.19;99516.13;5109712;28;20009;-39
2022/11/16 01:51:25;;;;;;;;;;;;;;;20.09;47.47;99521.66;5128971;28;19970;-39
2022/11/16 01:53:51;;;;;;;;;;;;;;;20.08;47.20;99515.31;5109862;28;19934;-38
2022/11/16 01:56:16;;;;;;;;;;;;;;;20.09;47.05;99505.06;5126719;28;19930;-38
2022/11/16 01:58:42;;;;;;;;;;;;;;;20.09;47.13;99496.78;5128273;28;19931;-37
2022/11/16 02:01:07;;;;;;;;;;;;;;;20.09;47.29;99496.78;5128713;28;20279;-39
2022/11/16 02:03:33;;;;;;;;;;;;;;;20.09;47.27;99492.06;5125717;27;20178;-38
2022/11/16 02:11:32;;;;;;;;;;;;;;;20.09;47.43;99499.53;5146185;27;19973;-39
2022/11/16 02:14:02;;;;;;;;;;;;;;;20.08;47.21;99500.66;5165230;27;19956;-39
2022/11/16 02:19:38;;;;;;;;;;;;;;;20.09;47.23;99507.84;5175093;27;19926;-37
2022/11/16 02:22:24;;;;;;;;;;;;;;;20.08;47.20;99501.50;5149912;27;19975;-39
2022/11/16 02:24:55;;;;;;;;;;;;;;;20.08;47.07;99497.91;5151456;27;19989;-38
2022/11/16 02:27:32;;;;;;;;;;;;;;;20.07;47.22;99502.63;5171810;27;19985;-39
2022/11/16 02:29:58;;;;;;;;;;;;;;;20.07;47.47;99494.31;5165991;27;20513;-38
2022/11/16 02:32:33;;;;;;;;;;;;;;;20.08;47.20;99489.59;5166211;27;19938;-38
2022/11/16 02:35:02;;;;;;;;;;;;;;;20.07;47.23;99480.50;5143803;27;20418;-39
2022/11/16 02:37:29;;;;;;;;;;;;;;;20.07;47.05;99466.69;5164756;27;19955;-37
2022/11/16 02:39:55;;;;;;;;;;;;;;;20.07;47.21;99477.75;5161315;27;19978;-37
2022/11/16 02:42:22;;;;;;;;;;;;;;;20.07;47.20;99479.69;5162395;27;19966;-38
2022/11/16 02:44:48;;;;;;;;;;;;;;;20.07;47.34;99476.94;5161150;27;20027;-39
2022/11/16 02:47:17;;;;;;;;;;;;;;;20.08;47.15;99475.78;5157827;27;19977;-39
2022/11/16 02:49:43;;;;;;;;;;;;;;;20.07;47.32;99474.97;5157098;27;20013;-39
2022/11/16 02:52:09;;;;;;;;;;;;;;;20.06;47.13;99476.13;5150416;27;19965;-38
2022/11/16 02:54:34;;;;;;;;;;;;;;;20.06;47.24;99470.59;5159752;27;19923;-39
2022/11/16 02:57:04;;;;;;;;;;;;;;;20.06;47.07;99459.53;5156815;27;19930;-39
2022/11/16 02:59:35;;;;;;;;;;;;;;;20.07;47.28;99468.63;5166891;27;19977;-39
2022/11/16 03:02:02;;;;;;;;;;;;;;;20.06;47.30;99462.31;5161612;27;19973;-38
2022/11/16 03:04:31;;;;;;;;;;;;;;;20.07;47.37;99457.59;5144172;27;19970;-39
2022/11/16 03:06:57;;;;;;;;;;;;;;;20.06;47.25;99456.78;5126606;27;19976;-38
2022/11/16 03:09:25;;;;;;;;;;;;;;;20.05;47.24;99453.19;5144149;27;19943;-38
2022/11/16 03:11:59;;;;;;;;;;;;;;;20.05;47.45;99453.19;5148188;27;20339;-37
2022/11/16 03:14:33;;;;;;;;;;;;;;;20.05;47.34;99457.91;5121560;27;19927;-38
2022/11/16 03:16:59;;;;;;;;;;;;;;;20.05;47.13;99461.50;5144118;27;19973;-38
2022/11/16 03:19:27;;;;;;;;;;;;;;;20.05;47.40;99457.91;5128156;27;19978;-38
2022/11/16 03:21:57;;;;;;;;;;;;;;;20.05;47.54;99460.69;5126416;27;19997;-40
2022/11/16 03:24:23;;;;;;;;;;;;;;;20.06;47.14;99467.81;5124912;27;19962;-39
2022/11/16 03:26:52;;;;;;;;;;;;;;;20.05;47.41;99472.53;5144750;27;19923;-38
2022/11/16 03:29:26;;;;;;;;;;;;;;;20.05;47.43;99468.97;5136240;27;20010;-39
2022/11/16 03:31:52;;;;;;;;;;;;;;;20.05;47.30;99480.03;5125334;27;20062;-40
2022/11/16 03:34:18;;;;;;;;;;;;;;;20.05;47.42;99485.56;5128670;27;21805;-39
2022/11/16 03:36:44;;;;;;;;;;;;;;;20.04;47.06;99490.28;5127182;27;19948;-39
2022/11/16 03:39:11;;;;;;;;;;;;;;;20.05;47.38;99491.88;5133537;27;20056;-38
2022/11/16 03:41:38;;;;;;;;;;;;;;;20.05;47.17;99496.59;5113083;27;19966;-37
2022/11/16 03:44:03;;;;;;;;;;;;;;;20.05;47.21;99491.06;5126227;27;20407;-39
2022/11/16 03:46:29;;;;;;;;;;;;;;;20.05;47.12;99496.59;5124928;27;19931;-39
2022/11/16 03:48:56;;;;;;;;;;;;;;;20.04;47.41;99497.75;5129648;27;19931;-38
2022/11/16 03:51:21;;;;;;;;;;;;;;;20.05;47.29;99504.91;5127100;27;19985;-39
2022/11/16 03:53:47;;;;;;;;;;;;;;;20.03;47.43;99505.22;5131526;27;19923;-38
2022/11/16 03:56:13;;;;;;;;;;;;;;;20.04;47.25;99500.50;5127811;27;19931;-39
2022/11/16 03:58:38;;;;;;;;;;;;;;;20.04;47.23;99501.31;5131160;27;20014;-39
2022/11/16 04:01:04;;;;;;;;;;;;;;;20.04;47.18;99500.50;5129495;27;20375;-38
2022/11/16 04:03:30;;;;;;;;;;;;;;;20.03;47.24;99505.22;5122485;27;20012;-39
2022/11/16 04:25:19;;;;;;;;;;;;;;;20.03;47.43;99527.34;5109546;27;20014;-39
2022/11/16 04:28:15;;;;;;;;;;;;;;;20.03;47.27;99526.50;5123088;27;19985;-38
2022/11/16 04:37:47;;;;;;;;;;;;;;;20.03;47.23;99519.03;5113310;27;20477;-39
2022/11/16 04:38:46;;;;;;;;;;;;;;;20.02;47.46;99533.97;5116950;27;20027;-38
2022/11/16 04:42:13;;;;;;;;;;;;;;;20.03;47.56;99521.81;5128569;27;20350;-39
2022/11/16 04:43:57;;;;;;;;;;;;;;;20.03;47.22;99516.28;5114010;27;19939;-38
2022/11/16 04:49:08;;;;;;;;;;;;;;;20.03;47.44;99524.56;5113602;27;19971;-37
2022/11/16 04:51:34;;;;;;;;;;;;;;;20.02;47.46;99520.16;5123546;27;19971;-38
2022/11/16 04:53:59;;;;;;;;;;;;;;;20.02;47.14;99533.16;5127943;27;19933;-39
2022/11/16 04:56:25;;;;;;;;;;;;;;;20.02;47.52;99530.41;5128651;27;19932;-39
2022/11/16 04:58:50;;;;;;;;;;;;;;;20.03;47.53;99532.03;5133313;27;19931;-39
2022/11/16 05:01:16;;;;;;;;;;;;;;;20.02;47.48;99533.16;5129263;27;19977;-39
2022/11/16 05:03:41;;;;;;;;;;;;;;;20.03;47.36;99537.53;5119984;27;19942;-40
2022/11/16 05:06:07;;;;;;;;;;;;;;;20.03;47.56;99534.78;5132123;27;19928;-39
2022/11/16 05:08:33;;;;;;;;;;;;;;;20.02;47.32;99536.75;5131139;27;19946;-39
2022/11/16 05:10:59;;;;;;;;;;;;;;;20.01;47.26;99537.88;5142069;27;19930;-38
2022/11/16 05:13:24;;;;;;;;;;;;;;;20.02;47.46;99541.44;5131240;27;19927;-37
2022/11/16 05:15:50;;;;;;;;;;;;;;;20.01;47.60;99537.88;5130851;27;20244;-38
2022/11/16 05:18:15;;;;;;;;;;;;;;;20.02;47.29;99535.94;5121918;27;19924;-39
2022/11/16 05:21:12;;;;;;;;;;;;;;;20.01;47.38;99545.34;5135769;27;19931;-39
2022/11/16 05:26:12;;;;;;;;;;;;;;;20.01;47.34;99548.13;5110285;27;19923;-37
2022/11/16 05:28:37;;;;;;;;;;;;;;;20.01;47.40;99548.94;5131348;27;20371;-38
2022/11/16 05:31:03;;;;;;;;;;;;;;;20.01;47.24;99551.69;5131538;27;19953;-38
2022/11/16 05:33:29;;;;;;;;;;;;;;;20.02;47.33;99552.50;5128838;27;20416;-38
2022/11/16 05:35:54;;;;;;;;;;;;;;;20.01;47.27;99557.22;5128248;27;20275;-37
2022/11/16 05:38:20;;;;;;;;;;;;;;;20.02;47.27;99560.78;5129704;27;19923;-40
2022/11/16 05:40:45;;;;;;;;;;;;;;;20.01;47.20;99565.50;5125540;27;19931;-39
2022/11/16 05:43:11;;;;;;;;;;;;;;;20.01;47.34;99553.66;5125736;27;20260;-39
2022/11/16 05:45:36;;;;;;;;;;;;;;;20.01;47.33;99559.19;5125203;27;19935;-39
2022/11/16 05:48:02;;;;;;;;;;;;;;;19.99;47.28;99562.28;5121139;27;20367;-39
2022/11/16 05:50:28;;;;;;;;;;;;;;;20.01;47.29;99561.94;5126243;27;19937;-39
2022/11/16 05:52:53;;;;;;;;;;;;;;;20.00;47.34;99560.31;5127839;27;20371;-38
2022/11/16 05:55:19;;;;;;;;;;;;;;;20.01;47.27;99561.94;5126607;27;19924;-38
2022/11/16 05:57:44;;;;;;;;;;;;;;;20.01;47.35;99559.19;5123225;27;19977;-39
2022/11/16 06:00:10;;;;;;;;;;;;;;;20.01;47.51;99567.47;5125820;27;19928;-38
2022/11/16 06:02:36;;;;;;;;;;;;;;;20.01;47.25;99575.75;5130026;27;20029;-39
2022/11/16 06:05:01;;;;;;;;;;;;;;;20.00;47.63;99566.66;5129799;27;19945;-38
2022/11/16 06:07:27;;;;;;;;;;;;;;;20.01;47.33;99573.81;5125924;27;19934;-39
2022/11/16 06:09:53;;;;;;;;;;;;;;;20.00;47.59;99571.38;5118707;27;19923;-38
2022/11/16 06:12:18;;;;;;;;;;;;;;;19.99;47.42;99567.78;5119173;27;19930;-39
2022/11/16 06:14:44;;;;;;;;;;;;;;;20.00;47.41;99583.25;5121013;27;20349;-39
2022/11/16 06:17:13;;;;;;;;;;;;;;;20.00;47.53;99582.41;5122655;27;19953;-39
2022/11/16 06:19:39;;;;;;;;;;;;;;;19.99;47.44;99578.84;5128253;27;19959;-39
2022/11/16 06:22:04;;;;;;;;;;;;;;;20.00;47.33;99585.19;5119778;27;19931;-37
2022/11/16 06:24:30;;;;;;;;;;;;;;;20.00;47.30;99586.00;5105614;27;19953;-38
2022/11/16 06:26:56;;;;;;;;;;;;;;;19.99;47.50;99587.13;5119703;27;19932;-39
2022/11/16 06:29:21;;;;;;;;;;;;;;;19.99;47.29;99592.66;5130707;27;19923;-39
2022/11/16 06:31:47;;;;;;;;;;;;;;;19.99;47.35;99598.19;5117338;27;19924;-37
2022/11/16 06:34:12;;;;;;;;;;;;;;;20.00;47.30;99596.25;5117875;27;19932;-38
2022/11/16 06:36:38;;;;;;;;;;;;;;;20.00;47.45;99610.06;5117358;27;19923;-38
2022/11/16 06:39:03;;;;;;;;;;;;;;;19.99;47.46;99608.41;5119319;27;19932;-39
2022/11/16 06:41:29;;;;;;;;;;;;;;;19.99;47.39;99614.78;5118796;27;19931;-39
2022/11/16 06:43:54;;;;;;;;;;;;;;;20.00;47.36;99623.88;5113720;27;19931;-38
2022/11/16 06:46:20;;;;;;;;;;;;;;;20.00;47.33;99621.09;5113530;27;19924;-39
2022/11/16 06:48:46;;;;;;;;;;;;;;;19.99;47.50;99619.47;5124196;27;20042;-38
2022/11/16 06:51:11;;;;;;;;;;;;;;;19.99;47.39;99630.50;5117222;27;20161;-40
2022/11/16 06:53:37;;;;;;;;;;;;;;;19.99;47.44;99631.34;5125193;27;19927;-41
2022/11/16 06:56:03;;;;;;;;;;;;;;;19.99;47.41;99639.66;5117243;27;19935;-39
2022/11/16 06:58:30;;;;;;;;;;;;;;;20.00;47.63;99632.16;5122916;27;19932;-38
2022/11/16 07:00:56;;;;;;;;;;;;;;;20.00;47.63;99637.69;5122212;27;19942;-40
2022/11/16 07:03:21;;;;;;;;;;;;;;;19.99;47.53;99633.28;5104105;27;19954;-39
2022/11/16 07:05:47;;;;;;;;;;;;;;;19.98;47.50;99640.75;5106992;28;20287;-39
2022/11/16 07:08:12;;;;;;;;;;;;;;;19.99;47.43;99638.81;5121571;27;19932;-38
2022/11/16 07:10:38;;;;;;;;;;;;;;;19.99;47.34;99644.31;5115500;27;19931;-37
2022/11/16 07:13:04;;;;;;;;;;;;;;;19.98;47.50;99643.50;5121357;27;19931;-39
2022/11/16 07:15:29;;;;;;;;;;;;;;;19.98;47.48;99646.28;5122226;27;19931;-39
2022/11/16 07:17:55;;;;;;;;;;;;;;;19.99;47.56;99647.09;5104224;28;20055;-40
2022/11/16 07:20:21;;;;;;;;;;;;;;;19.98;47.72;99654.56;5122645;27;19932;-40
2022/11/16 07:22:47;;;;;;;;;;;;;;;19.98;47.39;99651.81;5124989;27;19924;-39
2022/11/16 07:25:12;;;;;;;;;;;;;;;19.98;47.60;99660.09;5119674;27;19938;-39
2022/11/16 07:27:38;;;;;;;;;;;;;;;19.98;47.37;99671.16;5120623;27;19928;-38
2022/11/16 07:30:04;;;;;;;;;;;;;;;19.99;47.60;99677.50;5124192;27;19947;-39
2022/11/16 07:32:30;;;;;;;;;;;;;;;19.98;47.45;99678.63;5119241;27;19931;-38
2022/11/16 07:34:55;;;;;;;;;;;;;;;19.98;47.52;99675.88;5117811;27;19924;-40
2022/11/16 07:37:24;;;;;;;;;;;;;;;19.98;47.49;99681.38;5100013;27;19924;-39
2022/11/16 07:39:50;;;;;;;;;;;;;;;19.97;47.54;99683.34;5123267;27;20147;-39
2022/11/16 07:42:15;;;;;;;;;;;;;;;19.97;47.79;99686.09;5122281;27;19927;-39
2022/11/16 07:44:41;;;;;;;;;;;;;;;19.97;47.50;99690.81;5118452;27;19964;-39
2022/11/16 07:47:06;;;;;;;;;;;;;;;19.97;47.53;99699.09;5118630;27;20267;-39
2022/11/16 07:49:32;;;;;;;;;;;;;;;19.97;47.49;99691.63;5117431;27;19932;-39
2022/11/16 07:51:58;;;;;;;;;;;;;;;19.98;47.47;99686.91;5118754;27;20477;-39
2022/11/16 07:54:23;;;;;;;;;;;;;;;19.97;47.53;99697.16;5117632;27;19935;-38
2022/11/16 08:00:11;;;;;;;;;;;;;;;19.97;47.48;99697.16;5105487;27;20081;-40
2022/11/16 08:02:36;;;;;;;;;;;;;;;19.97;47.47;99694.41;5108354;27;19931;-40
2022/11/16 08:05:02;;;;;;;;;;;;;;;19.96;47.70;99703.81;5101592;27;19935;-39
2022/11/16 08:07:27;;;;;;;;;;;;;;;19.97;47.58;99707.41;5104352;27;20412;-39
2022/11/16 08:09:53;;;;;;;;;;;;;;;19.98;47.44;99701.53;5104599;27;20014;-39
2022/11/16 08:12:19;;;;;;;;;;;;;;;19.97;47.78;99705.44;5113050;27;20240;-38
2022/11/16 08:14:44;;;;;;;;;;;;;;;19.97;47.73;99710.16;5114601;27;19935;-37
2022/11/16 08:17:10;;;;;;;;;;;;;;;19.98;47.71;99711.78;5111555;27;20122;-37
2022/11/16 08:19:35;;;;;;;;;;;;;;;19.98;47.57;99720.06;5114637;27;19927;-38
2022/11/16 08:22:02;;;;;;;;;;;;;;;19.93;47.96;99723.78;5112377;27;20138;-40
2022/11/16 08:24:27;;;;;;;;;;;;;;;19.80;48.79;99725.50;5111880;27;20004;-39
2022/11/16 08:26:53;;;;;;;;;;;;;;;19.91;48.26;99728.81;5108612;27;19928;-41
2022/11/16 08:29:18;;;;;;;;;;;;;;;19.95;48.01;99729.03;5119698;27;19928;-37
2022/11/16 08:31:44;;;;;;;;;;;;;;;19.97;47.96;99732.28;5115489;27;19923;-38
2022/11/16 08:34:10;;;;;;;;;;;;;;;19.97;47.92;99741.38;5099958;27;19942;-38
2022/11/16 08:36:35;;;;;;;;;;;;;;;19.98;47.99;99736.66;5120859;27;19931;-37
2022/11/16 08:39:01;;;;;;;;;;;;;;;19.99;47.88;99738.28;5121406;27;19932;-40
2022/11/16 08:41:26;;;;;;;;;;;;;;;19.99;47.86;99732.75;5118925;27;19931;-38
2022/11/16 08:43:52;;;;;;;;;;;;;;;19.98;47.99;99745.75;5112315;27;21530;-38
2022/11/16 08:46:18;;;;;;;;;;;;;;;19.98;48.12;99743.00;5117594;27;20295;-39
2022/11/16 08:48:45;;;;;;;;;;;;;;;19.99;47.86;99744.66;5116704;27;19930;-38
2022/11/16 08:51:11;;;;;;;;;;;;;;;20.00;47.90;99751.00;5096285;28;20366;-39
2022/11/16 08:53:46;;;;;;;;;;;;;;;20.00;48.05;99753.75;5117368;27;19928;-39
2022/11/16 08:56:12;;;;;;;;;;;;;;;20.07;47.70;99747.78;5117642;27;19959;-39
2022/11/16 08:58:38;;;;;;;;;;;;;;;20.07;47.93;99751.34;5114450;27;20000;-39
2022/11/16 09:01:12;;;;;;;;;;;;;;;20.07;47.71;99750.53;5110726;27;20291;-39
2022/11/16 09:03:38;;;;;;;;;;;;;;;20.06;47.88;99760.78;5094219;28;19928;-39
2022/11/16 09:06:04;;;;;;;;;;;;;;;20.08;47.72;99763.22;5093727;27;20316;-39
2022/11/16 09:08:30;;;;;;;;;;;;;;;20.07;47.89;99767.94;5120217;27;20000;-38
2022/11/16 09:10:56;;;;;;;;;;;;;;;20.05;47.80;99768.25;5114499;27;19973;-39
2022/11/16 09:13:21;;;;;;;;;;;;;;;20.06;47.84;99769.06;5097806;28;19932;-39
2022/11/16 09:15:47;;;;;;;;;;;;;;;20.06;47.99;99769.06;5111107;27;19924;-38
2022/11/16 09:18:12;;;;;;;;;;;;;;;20.05;47.85;99771.03;5112646;27;19932;-40
2022/11/16 09:20:42;;;;;;;;;;;;;;;20.07;47.93;99769.88;5113489;27;19931;-40
2022/11/16 09:23:07;;;;;;;;;;;;;;;20.06;48.26;99769.06;5113878;27;20010;-41
2022/11/16 09:25:33;;;;;;;;;;;;;;;20.07;48.00;99773.47;5115461;27;19930;-40
2022/11/16 09:27:59;;;;;;;;;;;;;;;20.07;47.83;99778.16;5111610;27;20733;-39
2022/11/16 09:30:24;;;;;;;;;;;;;;;20.06;47.99;99785.66;5117239;27;19942;-39
2022/11/16 09:32:50;;;;;;;;;;;;;;;20.08;48.18;99779.78;5114307;27;20444;-38
2022/11/16 09:35:16;;;;;;;;;;;;;;;20.08;48.06;99777.03;5110253;27;19939;-37
2022/11/16 09:37:41;;;;;;;;;;;;;;;20.07;47.91;99770.69;5111968;27;19927;-38
2022/11/16 09:40:07;;;;;;;;;;;;;;;20.07;47.96;99778.16;5118769;27;19931;-39
2022/11/16 09:42:53;;;;;;;;;;;;;;;20.08;47.97;99775.13;5107837;27;20092;-40
2022/11/16 09:45:22;;;;;;;;;;;;;;;20.08;48.03;99777.03;5102514;28;19955;-39
2022/11/16 09:47:49;;;;;;;;;;;;;;;20.08;48.05;99775.13;5120671;27;20002;-40
2022/11/16 09:50:31;;;;;;;;;;;;;;;20.09;48.07;99773.97;5118510;27;20034;-38
2022/11/16 09:52:58;;;;;;;;;;;;;;;19.63;49.66;99777.00;5114291;27;20226;-41
2022/11/16 09:55:32;;;;;;;;;;;;;;;19.77;49.16;99775.84;5121831;27;19931;-37
2022/11/16 09:57:58;;;;;;;;;;;;;;;19.96;48.63;99772.91;5126815;27;21129;-38
2022/11/16 10:00:24;;;;;;;;;;;;;;;20.03;48.34;99776.06;5103769;27;19978;-39
2022/11/16 10:02:55;;;;;;;;;;;;;;;20.05;48.22;99771.03;5121413;27;19931;-40
2022/11/16 10:05:23;;;;;;;;;;;;;;;20.07;48.39;99773.47;5115943;27;20013;-38
2022/11/16 10:07:51;;;;;;;;;;;;;;;20.09;48.12;99771.22;5122529;27;19965;-38
2022/11/16 10:10:17;;;;;;;;;;;;;;;20.09;48.12;99776.75;5100203;27;20014;-37
2022/11/16 10:12:45;;;;;;;;;;;;;;;20.10;48.13;99780.31;5118056;27;20560;-38
2022/11/16 10:15:30;;;;;;;;;;;;;;;20.11;48.12;99784.72;5122150;27;19947;-37
2022/11/16 10:17:59;;;;;;;;;;;;;;;20.11;48.39;99776.41;5099766;27;19978;-38
2022/11/16 10:20:44;;;;;;;;;;;;;;;20.11;47.92;99773.66;5116118;27;19962;-37
2022/11/16 10:23:13;;;;;;;;;;;;;;;20.12;48.02;99778.03;5101263;27;19937;-39
2022/11/16 10:25:47;;;;;;;;;;;;;;;20.12;48.17;99775.28;5113366;27;19962;-38
2022/11/16 10:28:33;;;;;;;;;;;;;;;20.12;48.09;99781.66;5117006;27;20010;-39
2022/11/16 10:30:59;;;;;;;;;;;;;;;20.13;48.03;99774.16;5112997;27;20581;-38
2022/11/16 10:33:25;;;;;;;;;;;;;;;20.13;47.87;99774.16;5116005;27;19954;-39
2022/11/16 10:35:52;;;;;;;;;;;;;;;20.12;47.76;99766.97;5112530;27;20465;-38
2022/11/16 10:38:20;;;;;;;;;;;;;;;20.13;47.66;99763.09;5090920;27;19932;-41
2022/11/16 10:40:48;;;;;;;;;;;;;;;20.12;47.47;99761.44;5089020;28;20026;-39
2022/11/16 10:43:15;;;;;;;;;;;;;;;20.13;47.66;99757.59;5091023;28;20042;-39
2022/11/16 10:45:44;;;;;;;;;;;;;;;20.12;47.32;99754.00;5110497;27;20410;-38
2022/11/16 10:48:21;;;;;;;;;;;;;;;20.13;47.34;99758.41;5116525;27;19931;-38
2022/11/16 10:50:48;;;;;;;;;;;;;;;20.14;47.12;99751.72;5119462;27;19981;-38
2022/11/16 10:53:14;;;;;;;;;;;;;;;20.12;47.01;99751.25;5118918;27;19929;-38
2022/11/16 10:55:39;;;;;;;;;;;;;;;20.12;47.17;99751.25;5119545;27;19973;-39
2022/11/16 10:58:05;;;;;;;;;;;;;;;20.14;47.43;99750.91;5121027;27;20050;-39
2022/11/16 11:00:40;;;;;;;;;;;;;;;20.14;47.44;99751.72;5121608;27;19928;-38
2022/11/16 11:03:06;;;;;;;;;;;;;;;20.16;47.37;99748.63;5124968;27;19985;-37
2022/11/16 11:05:33;;;;;;;;;;;;;;;20.14;47.25;99737.91;5122635;27;19923;-39
2022/11/16 11:08:03;;;;;;;;;;;;;;;20.15;47.57;99742.28;5126506;27;20830;-39
2022/11/16 11:10:30;;;;;;;;;;;;;;;20.15;47.77;99744.25;5117271;27;20436;-38
2022/11/16 11:13:00;;;;;;;;;;;;;;;20.15;47.50;99741.47;5121486;27;19977;-38
2022/11/16 11:15:26;;;;;;;;;;;;;;;20.15;47.78;99734.00;5107373;28;20380;-40
2022/11/16 11:18:12;;;;;;;;;;;;;;;20.16;47.64;99727.34;5121287;27;19976;-41
2022/11/16 11:20:40;;;;;;;;;;;;;;;20.17;47.62;99730.94;5103184;27;19991;-40
2022/11/16 11:23:25;;;;;;;;;;;;;;;20.14;47.79;99721.31;5124104;27;20399;-37
2022/11/16 11:25:53;;;;;;;;;;;;;;;20.15;47.66;99722.94;5113920;27;20093;-39
2022/11/16 11:28:23;;;;;;;;;;;;;;;20.16;47.93;99721.00;5098499;27;19935;-39
2022/11/16 11:30:58;;;;;;;;;;;;;;;20.15;47.68;99720.19;5099271;28;20092;-39
2022/11/16 11:33:26;;;;;;;;;;;;;;;20.14;47.40;99715.78;5119149;27;19983;-38
2022/11/16 11:35:55;;;;;;;;;;;;;;;20.15;47.80;99709.13;5101145;27;20038;-39
2022/11/16 11:38:21;;;;;;;;;;;;;;;20.15;47.56;99702.78;5117886;27;20171;-38
2022/11/16 11:41:03;;;;;;;;;;;;;;;20.16;47.51;99698.88;5120089;27;20018;-39
2022/11/16 11:43:29;;;;;;;;;;;;;;;20.18;47.60;99689.16;5098918;27;20182;-39
2022/11/16 11:46:15;;;;;;;;;;;;;;;20.18;47.32;99693.88;5082848;27;20164;-39
2022/11/16 11:48:46;;;;;;;;;;;;;;;20.18;47.13;99686.38;5101476;27;19986;-40
2022/11/16 11:51:32;;;;;;;;;;;;;;;20.18;47.50;99689.16;5119203;27;19962;-41
2022/11/16 11:53:58;;;;;;;;;;;;;;;20.22;47.70;99678.28;5104819;27;20030;-46
2022/11/16 11:56:24;;;;;;;;;;;;;;;20.24;47.63;99678.75;5117357;27;20444;-31
2022/11/16 11:58:50;;;;;;;;;;;;;;;20.24;47.67;99682.34;5116791;27;19923;-42
2022/11/16 12:01:36;;;;;;;;;;;;;;;19.92;47.88;99680.72;5118145;27;19979;-41
2022/11/16 12:04:22;;;;;;;;;;;;;;;20.13;47.77;99681.00;5103302;27;20067;-39
2022/11/16 12:07:07;;;;;;;;;;;;;;;20.17;47.61;99678.41;5098779;27;20881;-40
2022/11/16 12:09:36;;;;;;;;;;;;;;;20.21;47.73;99671.13;5104666;27;19938;-39
2022/11/16 12:12:06;;;;;;;;;;;;;;;20.23;47.62;99666.91;5119362;27;19924;-39
2022/11/16 12:14:58;;;;;;;;;;;;;;;20.05;47.06;99659.66;5122766;27;19931;-40
2022/11/16 12:17:43;;;;;;;;;;;;;;;19.94;47.89;99653.56;5098882;27;20400;-39
2022/11/16 12:20:24;;;;;;;;;;;;;;;20.11;47.58;99657.56;5101309;27;20015;-39
2022/11/16 12:23:01;;;;;;;;;;;;;;;20.16;47.31;99655.47;5116505;27;19979;-39
2022/11/16 12:25:40;;;;;;;;;;;;;;;20.18;47.43;99647.69;5125406;27;19923;-39
2022/11/16 12:28:26;;;;;;;;;;;;;;;20.19;47.37;99645.75;5123674;27;19974;-40
2022/11/16 12:30:58;;;;;;;;;;;;;;;20.21;47.44;99647.06;5105384;27;20382;-39
2022/11/16 12:33:43;;;;;;;;;;;;;;;20.17;47.31;99648.84;5121776;27;19966;-39
2022/11/16 12:36:18;;;;;;;;;;;;;;;20.30;46.98;99644.34;5094293;27;20043;-39
2022/11/16 12:39:03;;;;;;;;;;;;;;;20.28;47.39;99641.88;5118282;27;20015;-39
2022/11/16 12:41:36;;;;;;;;;;;;;;;20.24;47.15;99643.63;5103462;28;20010;-38
2022/11/16 12:44:02;;;;;;;;;;;;;;;20.23;47.14;99638.44;5115997;27;20681;-38
2022/11/16 12:46:32;;;;;;;;;;;;;;;20.24;47.16;99634.53;5119307;27;19967;-39
2022/11/16 12:51:50;;;;;;;;;;;;;;;20.24;47.29;99648.34;5151809;27;19926;-38
2022/11/16 12:54:35;;;;;;;;;;;;;;;20.21;46.67;99644.28;5137896;27;20002;-38
2022/11/16 12:57:03;;;;;;;;;;;;;;;20.21;47.38;99633.25;5126825;27;20413;-39
2022/11/16 12:59:32;;;;;;;;;;;;;;;20.23;47.43;99636.47;5136821;27;20342;-40
2022/11/16 13:02:18;;;;;;;;;;;;;;;20.22;47.21;99625.75;5134603;27;19962;-38
2022/11/16 13:04:44;;;;;;;;;;;;;;;20.24;47.44;99626.25;5114270;27;19983;-40
2022/11/16 13:07:13;;;;;;;;;;;;;;;20.22;47.42;99623.00;5098978;27;20018;-39
2022/11/16 13:09:39;;;;;;;;;;;;;;;20.23;47.57;99622.66;5119402;27;19967;-39
2022/11/16 13:12:05;;;;;;;;;;;;;;;20.24;47.25;99623.47;5115997;28;20547;-38
2022/11/16 13:14:33;;;;;;;;;;;;;;;20.26;47.54;99621.22;5112473;27;19928;-41
2022/11/16 13:16:59;;;;;;;;;;;;;;;20.19;47.09;99610.63;5119917;27;20011;-40
2022/11/16 13:19:24;;;;;;;;;;;;;;;20.24;47.10;99613.22;5113256;27;19951;-39
2022/11/16 13:22:06;;;;;;;;;;;;;;;20.25;47.11;99612.13;5118014;27;19927;-38
2022/11/16 13:24:52;;;;;;;;;;;;;;;20.27;47.06;99606.25;5095239;27;20430;-39
2022/11/16 13:27:22;;;;;;;;;;;;;;;20.29;46.92;99609.50;5118846;27;20011;-40
2022/11/16 13:30:08;;;;;;;;;;;;;;;20.31;47.37;99590.66;5093137;28;19997;-39
2022/11/16 13:32:43;;;;;;;;;;;;;;;20.32;47.24;99592.28;5095030;28;19982;-39
2022/11/16 13:35:12;;;;;;;;;;;;;;;20.32;47.60;99592.28;5087622;28;19959;-38
2022/11/16 13:37:40;;;;;;;;;;;;;;;20.32;47.49;99580.41;5101569;27;19935;-42
2022/11/16 13:42:42;;;;;;;;;;;;;;;20.33;47.09;99576.50;5150029;27;19937;-38